Time;durP1;ratioP1;P1;durP2;ratioP2;P2;SDS_P1;SDS_P2;PMS_P1;PMS_P2;Temp;Humidity;BMP_temperature;BMP_pressure;BME280_temperature;BME280_humidity;BME280_pressure;Samples;Min_cycle;Max_cycle;Signal;HPM_P1;HPM_P2
2021/06/23 00:01:30;;;;;;;12.77;8.13;;;;;;;26.99;55.99;99249.72;5069877;28;20111;-76
2021/06/23 00:03:55;;;;;;;11.02;7.68;;;;;;;26.50;55.92;99180.47;5071410;28;20024;-75
2021/06/23 00:06:20;;;;;;;10.68;7.50;;;;;;;26.62;55.85;99198.19;5071339;28;20077;-75
2021/06/23 00:08:46;;;;;;;9.00;7.93;;;;;;;26.58;55.80;99204.19;5071312;28;20024;-76
2021/06/23 00:11:11;;;;;;;11.95;7.93;;;;;;;26.55;56.03;99210.19;5071250;28;20031;-76
2021/06/23 00:13:37;;;;;;;8.40;7.40;;;;;;;26.68;56.36;99248.47;5071056;28;20024;-75
2021/06/23 00:16:06;;;;;;;8.85;7.72;;;;;;;26.60;56.31;99242.63;5070984;28;20029;-76
2021/06/23 00:18:31;;;;;;;11.57;8.25;;;;;;;25.85;56.34;99133.34;5071148;28;20017;-75
2021/06/23 00:20:57;;;;;;;12.45;8.73;;;;;;;26.14;56.73;99199.03;5071156;28;20032;-75
2021/06/23 00:23:22;;;;;;;9.60;8.60;;;;;;;25.92;57.12;99171.66;5071056;28;20021;-75
2021/06/23 00:25:48;;;;;;;9.40;8.45;;;;;;;26.12;56.97;99200.41;5071024;28;20021;-76
2021/06/23 00:28:14;;;;;;;8.50;7.70;;;;;;;26.32;57.21;99248.09;5071206;28;20477;-75
2021/06/23 00:30:39;;;;;;;9.23;8.32;;;;;;;26.19;56.86;99222.53;5070820;28;20398;-75
2021/06/23 00:33:12;;;;;;;9.80;8.57;;;;;;;26.25;57.63;99240.31;5069688;28;20206;-75
2021/06/23 00:35:37;;;;;;;10.88;9.15;;;;;;;26.05;57.43;99222.41;5071014;28;20054;-75
2021/06/23 00:38:04;;;;;;;12.30;9.13;;;;;;;26.07;57.80;99238.34;5071127;28;20055;-74
2021/06/23 00:40:30;;;;;;;11.38;8.60;;;;;;;26.10;57.68;99241.28;5070896;28;20413;-77
2021/06/23 00:42:56;;;;;;;12.82;8.05;;;;;;;25.62;57.89;99181.69;5070890;28;20031;-75
2021/06/23 00:45:21;;;;;;;9.90;8.73;;;;;;;26.06;57.86;99245.66;5073253;28;20024;-74
2021/06/23 00:47:48;;;;;;;13.30;9.63;;;;;;;26.04;58.03;99236.22;5074690;28;20082;-76
2021/06/23 00:50:16;;;;;;;10.77;8.60;;;;;;;25.81;57.99;99221.53;5074522;28;20097;-76
2021/06/23 00:52:43;;;;;;;13.13;8.52;;;;;;;25.94;58.12;99250.63;5074748;28;20095;-76
2021/06/23 00:55:09;;;;;;;10.38;8.98;;;;;;;25.42;58.18;99171.06;5074501;28;20025;-77
2021/06/23 00:57:38;;;;;;;10.88;9.55;;;;;;;25.92;58.20;99253.63;5074433;28;20020;-76
2021/06/23 01:00:04;;;;;;;10.23;8.73;;;;;;;25.89;58.75;99242.56;5074579;28;20025;-76
2021/06/23 01:02:30;;;;;;;12.00;8.43;;;;;;;25.52;58.76;99198.00;5074616;28;20023;-76
2021/06/23 01:04:56;;;;;;;11.30;8.35;;;;;;;25.30;58.95;99166.03;5073030;28;20024;-76
2021/06/23 01:07:21;;;;;;;11.52;8.25;;;;;;;25.57;59.06;99203.34;5074423;28;20020;-76
2021/06/23 01:09:47;;;;;;;10.80;9.05;;;;;;;25.74;58.69;99227.28;5074529;28;20036;-76
2021/06/23 01:12:28;;;;;;;9.52;8.20;;;;;;;25.85;58.62;99226.09;5074449;28;20386;-77
2021/06/23 01:14:54;;;;;;;9.70;8.70;;;;;;;25.57;58.82;99191.72;5074569;28;20024;-76
2021/06/23 01:17:21;;;;;;;10.90;8.30;;;;;;;25.73;58.83;99224.88;5074222;28;20029;-76
2021/06/23 01:19:48;;;;;;;14.70;8.45;;;;;;;25.75;58.50;99218.09;5074003;28;20478;-76
2021/06/23 01:22:16;;;;;;;10.38;8.45;;;;;;;25.95;58.73;99247.63;5073821;28;20021;-76
2021/06/23 01:24:43;;;;;;;10.32;8.38;;;;;;;25.96;58.38;99243.84;5074296;28;20020;-76
2021/06/23 01:27:09;;;;;;;10.32;8.82;;;;;;;25.89;58.52;99246.06;5074084;28;20021;-76
2021/06/23 01:29:37;;;;;;;12.57;9.05;;;;;;;25.58;59.08;99199.56;5073928;28;20558;-76
2021/06/23 01:32:06;;;;;;;10.75;9.20;;;;;;;25.89;58.81;99258.78;5073919;28;20099;-76
2021/06/23 01:34:31;;;;;;;15.50;9.50;;;;;;;25.87;59.03;99256.38;5072324;28;20020;-76
2021/06/23 01:36:57;;;;;;;14.48;9.13;;;;;;;25.43;58.82;99190.78;5073780;28;20519;-75
2021/06/23 01:39:22;;;;;;;14.32;10.07;;;;;;;25.63;59.22;99234.66;5074275;28;20028;-76
2021/06/23 01:41:47;;;;;;;10.30;9.30;;;;;;;25.82;59.14;99258.31;5074005;28;20489;-77
2021/06/23 01:44:13;;;;;;;10.40;8.57;;;;;;;25.84;59.07;99259.66;5073697;28;20481;-76
2021/06/23 01:46:38;;;;;;;13.45;8.88;;;;;;;25.58;58.85;99232.00;5072125;28;20526;-76
2021/06/23 01:49:04;;;;;;;12.07;9.52;;;;;;;25.55;58.93;99212.84;5073737;28;20025;-75
2021/06/23 01:51:29;;;;;;;13.35;12.05;;;;;;;25.90;59.26;99265.81;5073453;28;20043;-76
2021/06/23 01:53:55;;;;;;;13.70;10.77;;;;;;;25.84;59.41;99256.13;5073582;28;20378;-76
2021/06/23 01:56:20;;;;;;;12.48;10.60;;;;;;;25.63;59.70;99231.97;5072871;28;20420;-76
2021/06/23 01:58:46;;;;;;;13.55;11.70;;;;;;;25.56;59.65;99238.78;5073371;28;20017;-76
2021/06/23 02:01:58;;;;;;;15.63;10.75;;;;;;;25.82;59.68;99264.53;5073544;28;20032;-76
2021/06/23 02:04:46;;;;;;;12.93;11.50;;;;;;;25.77;59.88;99271.88;5061608;28;20067;-75
2021/06/23 02:07:33;;;;;;;16.08;11.52;;;;;;;25.77;59.58;99267.28;5073003;28;20032;-76
2021/06/23 02:09:58;;;;;;;12.38;10.30;;;;;;;25.75;59.75;99264.06;5073479;28;20064;-76
2021/06/23 02:12:23;;;;;;;11.20;10.10;;;;;;;25.73;59.69;99263.53;5073430;28;20052;-76
2021/06/23 02:14:51;;;;;;;13.77;11.40;;;;;;;25.76;59.97;99265.69;5073218;28;20032;-75
2021/06/23 02:17:17;;;;;;;12.82;11.60;;;;;;;25.35;59.77;99194.91;5073190;28;20028;-76
2021/06/23 02:19:45;;;;;;;12.82;11.52;;;;;;;25.78;59.81;99281.63;5073055;28;20409;-76
2021/06/23 02:22:17;;;;;;;13.63;11.63;;;;;;;25.52;59.69;99226.94;5072742;28;20127;-76
2021/06/23 02:24:44;;;;;;;29.30;12.82;;;;;;;25.34;59.68;99214.91;5071614;28;20408;-76
2021/06/23 02:27:11;;;;;;;13.00;11.55;;;;;;;25.54;59.89;99238.25;5071437;28;20036;-76
2021/06/23 02:29:37;;;;;;;13.50;12.18;;;;;;;25.49;59.83;99230.19;5072953;28;20028;-76
2021/06/23 02:32:04;;;;;;;14.20;12.73;;;;;;;25.60;59.59;99246.03;5072977;28;20017;-76
2021/06/23 02:34:31;;;;;;;13.00;11.70;;;;;;;25.30;60.17;99211.97;5072632;28;20024;-77
2021/06/23 02:36:57;;;;;;;13.40;12.10;;;;;;;25.51;60.17;99247.75;5071463;28;20033;-75
2021/06/23 02:39:22;;;;;;;14.25;11.90;;;;;;;25.53;59.96;99256.38;5072739;28;20158;-76
2021/06/23 02:41:48;;;;;;;16.30;11.80;;;;;;;25.36;59.88;99242.47;5072378;28;20029;-76
2021/06/23 02:44:14;;;;;;;12.18;10.93;;;;;;;25.48;60.11;99259.13;5072630;28;20112;-76
2021/06/23 02:46:39;;;;;;;12.70;11.48;;;;;;;25.43;59.91;99252.94;5072648;28;20024;-77
2021/06/23 02:49:06;;;;;;;14.27;12.27;;;;;;;25.38;59.93;99253.00;5072506;28;20107;-75
2021/06/23 02:51:39;;;;;;;14.07;12.77;;;;;;;25.30;60.01;99268.72;5072528;28;20056;-76
2021/06/23 02:54:07;;;;;;;14.18;11.30;;;;;;;25.26;60.04;99262.22;5072376;28;20021;-76
2021/06/23 02:56:33;;;;;;;13.52;11.10;;;;;;;24.77;60.20;99173.13;5072283;28;20027;-76
2021/06/23 02:59:00;;;;;;;15.00;11.20;;;;;;;25.07;59.85;99215.34;5072186;28;20032;-76
2021/06/23 03:01:26;;;;;;;13.75;11.25;;;;;;;25.33;59.68;99253.84;5072413;28;20476;-76
2021/06/23 03:03:51;;;;;;;13.50;12.10;;;;;;;25.28;60.13;99251.16;5072402;28;20055;-77
2021/06/23 03:06:17;;;;;;;12.93;11.57;;;;;;;25.06;60.34;99229.94;5072277;28;20471;-75
2021/06/23 03:08:42;;;;;;;15.23;11.98;;;;;;;24.70;60.61;99213.94;5071206;28;20393;-76
2021/06/23 03:11:08;;;;;;;14.50;12.70;;;;;;;25.01;60.88;99265.09;5072252;28;20489;-77
2021/06/23 03:13:34;;;;;;;15.05;11.27;;;;;;;24.96;60.59;99257.81;5072223;28;20075;-76
2021/06/23 03:15:59;;;;;;;16.55;11.82;;;;;;;24.68;60.57;99226.09;5071996;28;20039;-76
2021/06/23 03:18:28;;;;;;;16.67;11.57;;;;;;;24.43;60.67;99188.41;5070603;28;20032;-76
2021/06/23 03:20:54;;;;;;;16.10;12.48;;;;;;;24.34;60.59;99174.69;5071761;28;20108;-76
2021/06/23 03:23:20;;;;;;;15.73;12.43;;;;;;;25.01;60.39;99284.00;5071913;28;20112;-76
2021/06/23 03:25:45;;;;;;;15.65;11.82;;;;;;;24.45;60.68;99210.53;5070964;28;20036;-75
2021/06/23 03:28:11;;;;;;;16.17;11.57;;;;;;;24.73;60.73;99246.88;5071862;28;20487;-75
2021/06/23 03:30:37;;;;;;;20.95;12.55;;;;;;;24.94;60.51;99281.59;5071680;28;20028;-76
2021/06/23 03:33:03;;;;;;;16.25;12.40;;;;;;;24.65;60.61;99240.16;5071796;28;20021;-76
2021/06/23 03:35:28;;;;;;;13.00;11.23;;;;;;;24.43;61.07;99228.88;5071902;28;20489;-75
2021/06/23 03:37:55;;;;;;;14.93;11.75;;;;;;;24.45;61.17;99232.13;5072056;28;20028;-76
2021/06/23 03:40:22;;;;;;;15.02;11.95;;;;;;;24.43;61.03;99229.69;5071727;28;20036;-76
2021/06/23 03:42:48;;;;;;;14.18;12.02;;;;;;;24.92;60.76;99302.66;5070295;28;20025;-76
2021/06/23 03:45:15;;;;;;;16.52;12.80;;;;;;;24.96;60.89;99300.22;5071874;28;20031;-77
2021/06/23 03:47:41;;;;;;;15.48;13.43;;;;;;;24.98;61.11;99309.69;5071816;28;20032;-76
2021/06/23 03:50:08;;;;;;;13.60;12.30;;;;;;;24.82;60.79;99273.00;5071779;28;20027;-76
2021/06/23 03:52:34;;;;;;;15.25;12.30;;;;;;;24.93;60.81;99289.97;5071517;28;20024;-76
2021/06/23 03:55:01;;;;;;;15.73;12.70;;;;;;;24.95;60.66;99291.31;5071684;28;20039;-77
2021/06/23 03:57:27;;;;;;;15.20;12.70;;;;;;;25.10;60.66;99314.75;5071848;28;20041;-76
2021/06/23 03:59:52;;;;;;;14.07;12.43;;;;;;;24.75;60.50;99260.91;5071625;28;20025;-75
2021/06/23 04:02:18;;;;;;;15.13;12.80;;;;;;;24.80;60.67;99263.56;5071307;28;20029;-77
2021/06/23 04:04:45;;;;;;;14.15;11.98;;;;;;;24.91;60.76;99265.13;5070153;28;20066;-76
2021/06/23 04:07:11;;;;;;;16.48;12.65;;;;;;;25.21;60.47;99313.59;5070258;28;20032;-76
2021/06/23 04:09:37;;;;;;;16.35;12.90;;;;;;;24.87;60.58;99258.66;5071578;28;20024;-76
2021/06/23 04:12:03;;;;;;;14.40;12.50;;;;;;;25.23;60.48;99313.31;5071639;28;20029;-76
2021/06/23 04:14:28;;;;;;;14.25;12.48;;;;;;;25.26;60.60;99316.28;5071342;28;20031;-75
2021/06/23 04:16:54;;;;;;;19.75;13.85;;;;;;;25.14;60.96;99310.41;5071377;28;20534;-76
2021/06/23 04:19:20;;;;;;;18.00;13.63;;;;;;;25.05;61.03;99320.19;5072142;28;20033;-76
2021/06/23 04:21:45;;;;;;;16.33;13.35;;;;;;;24.98;61.21;99319.69;5075389;28;20409;-76
2021/06/23 04:24:11;;;;;;;17.00;13.50;;;;;;;24.45;61.42;99238.31;5075295;28;20032;-76
2021/06/23 04:26:38;;;;;;;23.15;14.65;;;;;;;24.65;61.13;99264.44;5075632;28;20489;-77
2021/06/23 04:29:03;;;;;;;14.45;13.00;;;;;;;25.12;61.23;99341.50;5075364;28;20029;-77
2021/06/23 04:31:30;;;;;;;16.75;13.20;;;;;;;24.94;61.23;99296.97;5075516;28;20033;-77
2021/06/23 04:33:56;;;;;;;17.35;12.82;;;;;;;25.30;60.93;99338.19;5075250;28;20032;-75
2021/06/23 04:36:21;;;;;;;17.08;13.15;;;;;;;24.98;60.87;99284.56;5075540;28;20036;-77
2021/06/23 04:38:47;;;;;;;16.33;12.35;;;;;;;25.16;60.29;99299.31;5074922;28;20020;-76
2021/06/23 04:41:12;;;;;;;21.35;13.57;;;;;;;25.46;60.33;99347.81;5075361;28;20031;-76
2021/06/23 04:43:38;;;;;;;18.75;13.73;;;;;;;25.02;60.26;99253.22;5074868;28;20106;-76
2021/06/23 04:46:03;;;;;;;15.93;13.35;;;;;;;25.54;59.81;99322.06;5074576;28;20028;-77
2021/06/23 04:48:30;;;;;;;16.15;12.73;;;;;;;25.24;60.05;99263.59;5074683;28;20024;-76
2021/06/23 04:50:55;;;;;;;18.98;13.93;;;;;;;25.83;59.33;99341.88;5074829;28;20056;-74
2021/06/23 04:53:21;;;;;;;18.60;13.90;;;;;;;25.86;59.39;99346.72;5074787;28;20479;-76
2021/06/23 04:55:46;;;;;;;19.42;13.90;;;;;;;25.67;59.25;99307.13;5074480;28;20024;-74
2021/06/23 04:58:11;;;;;;;19.50;14.65;;;;;;;25.52;59.11;99268.28;5072867;28;20028;-75
2021/06/23 05:00:37;;;;;;;19.38;14.60;;;;;;;25.55;59.21;99259.59;5072775;28;20413;-75
2021/06/23 05:03:02;;;;;;;20.42;15.02;;;;;;;26.14;59.12;99347.06;5073578;28;20032;-73
2021/06/23 05:05:28;;;;;;;20.92;15.10;;;;;;;25.81;59.54;99300.78;5072757;28;20024;-77
2021/06/23 05:07:54;;;;;;;28.25;24.10;;;;;;;26.22;59.31;99354.56;5086966;28;20028;-76
2021/06/23 05:10:19;;;;;;;31.73;21.60;;;;;;;26.26;59.00;99355.59;5093719;28;20019;-75
2021/06/23 05:12:45;;;;;;;30.15;20.10;;;;;;;25.86;59.11;99291.81;5075102;28;20081;-77
2021/06/23 05:15:11;;;;;;;20.25;17.40;;;;;;;25.96;59.14;99294.44;5090015;28;20408;-75
2021/06/23 05:17:37;;;;;;;19.30;16.52;;;;;;;26.03;58.90;99313.88;5081358;28;20643;-76
2021/06/23 05:20:04;;;;;;;20.25;15.73;;;;;;;25.79;58.83;99261.59;5087286;28;20081;-75
2021/06/23 05:22:29;;;;;;;21.42;16.08;;;;;;;26.29;58.74;99339.59;5081924;28;20033;-76
2021/06/23 05:24:56;;;;;;;19.73;15.35;;;;;;;26.51;58.86;99360.78;5076251;28;20051;-74
2021/06/23 05:27:22;;;;;;;21.00;15.18;;;;;;;26.43;58.62;99353.28;5077401;28;20037;-74
2021/06/23 05:29:47;;;;;;;19.92;14.38;;;;;;;25.97;58.84;99287.94;5074158;28;20481;-76
2021/06/23 05:32:13;;;;;;;17.50;14.85;;;;;;;26.25;58.74;99333.13;5075854;28;20029;-75
2021/06/23 05:34:38;;;;;;;18.25;14.18;;;;;;;26.17;58.38;99309.41;5082326;28;20032;-76
2021/06/23 05:37:04;;;;;;;19.67;14.13;;;;;;;26.26;58.44;99315.81;5075438;28;20516;-76
2021/06/23 05:39:29;;;;;;;21.33;14.20;;;;;;;26.25;58.21;99300.66;5093144;28;20043;-76
2021/06/23 05:41:54;;;;;;;17.63;13.20;;;;;;;26.25;58.26;99299.84;5075888;28;20028;-76
2021/06/23 05:44:20;;;;;;;16.58;14.77;;;;;;;26.67;57.96;99366.03;5089138;28;20053;-74
2021/06/23 05:46:45;;;;;;;22.40;18.10;;;;;;;26.69;58.28;99367.34;5083742;28;20028;-75
2021/06/23 05:49:11;;;;;;;19.17;15.57;;;;;;;26.36;58.04;99319.53;5084918;28;20501;-75
2021/06/23 05:51:36;;;;;;;22.70;17.92;;;;;;;26.79;58.02;99378.09;5090427;28;20099;-77
2021/06/23 05:54:02;;;;;;;20.05;15.38;;;;;;;26.60;58.00;99350.13;5074139;28;20115;-76
2021/06/23 05:56:28;;;;;;;24.05;13.57;;;;;;;26.83;57.67;99376.44;5075949;28;20028;-77
2021/06/23 05:58:54;;;;;;;22.25;14.35;;;;;;;26.72;57.53;99353.22;5086797;28;20457;-75
2021/06/23 06:01:20;;;;;;;21.33;14.05;;;;;;;26.63;57.30;99335.19;5093474;28;20016;-75
2021/06/23 06:03:45;;;;;;;19.88;15.98;;;;;;;26.84;57.21;99364.50;5073245;28;20038;-77
2021/06/23 06:06:10;;;;;;;21.67;15.75;;;;;;;26.89;57.20;99369.06;5082826;28;20108;-75
2021/06/23 06:08:36;;;;;;;21.77;15.07;;;;;;;26.75;56.74;99339.13;5078183;28;20119;-76
2021/06/23 06:11:02;;;;;;;26.63;18.23;;;;;;;27.03;56.51;99380.03;5089980;28;20177;-74
2021/06/23 06:13:28;;;;;;;20.70;16.00;;;;;;;26.96;56.25;99358.66;5080774;28;20476;-76
2021/06/23 06:15:54;;;;;;;24.40;17.40;;;;;;;26.93;56.11;99356.53;5072970;28;20024;-74
2021/06/23 06:18:23;;;;;;;24.48;14.10;;;;;;;27.11;55.96;99372.06;5073784;28;20056;-74
2021/06/23 06:20:49;;;;;;;24.58;15.68;;;;;;;27.02;56.08;99354.81;5071619;28;20489;-77
2021/06/23 06:23:15;;;;;;;21.13;15.18;;;;;;;27.30;55.90;99382.91;5075875;28;20039;-77
2021/06/23 06:25:40;;;;;;;23.98;13.85;;;;;;;27.07;55.67;99337.69;5081470;28;20032;-77
2021/06/23 06:28:05;;;;;;;18.60;12.57;;;;;;;27.03;55.83;99340.19;5084194;28;20020;-74
2021/06/23 06:30:31;;;;;;;24.92;13.27;;;;;;;27.17;55.54;99351.09;5074617;28;20032;-75
2021/06/23 06:32:57;;;;;;;21.05;13.40;;;;;;;27.35;55.45;99366.56;5082270;28;20467;-76
2021/06/23 06:35:22;;;;;;;23.60;13.38;;;;;;;27.56;55.31;99393.44;5074987;28;20035;-76
2021/06/23 06:37:48;;;;;;;20.80;13.40;;;;;;;27.39;55.21;99350.53;5077281;28;20040;-76
2021/06/23 06:40:14;;;;;;;21.10;13.27;;;;;;;27.73;55.00;99391.03;5086189;28;20476;-75
2021/06/23 06:42:39;;;;;;;22.63;12.35;;;;;;;27.47;54.76;99334.41;5073166;28;20036;-76
2021/06/23 06:45:06;;;;;;;25.05;15.68;;;;;;;27.08;54.39;99283.19;5070556;28;20497;-75
2021/06/23 06:47:32;;;;;;;27.15;13.93;;;;;;;27.72;54.69;99363.09;5084747;28;20028;-77
2021/06/23 06:49:58;;;;;;;22.58;14.02;;;;;;;28.03;54.35;99387.03;5081621;28;20507;-75
2021/06/23 06:52:24;;;;;;;21.92;13.23;;;;;;;27.95;54.55;99376.84;5078502;28;20027;-77
2021/06/23 06:54:49;;;;;;;21.15;13.18;;;;;;;27.62;54.56;99319.06;5085438;28;20016;-77
2021/06/23 06:57:15;;;;;;;22.70;12.57;;;;;;;27.83;54.23;99323.03;5073509;28;20117;-77
2021/06/23 06:59:40;;;;;;;19.70;12.73;;;;;;;27.48;54.00;99275.53;5081757;28;20016;-77
2021/06/23 07:02:06;;;;;;;22.42;12.65;;;;;;;28.26;53.98;99394.28;5073012;28;20535;-77
2021/06/23 07:04:32;;;;;;;18.35;11.82;;;;;;;27.99;53.54;99335.25;5073006;28;20083;-76
2021/06/23 07:06:57;;;;;;;25.73;12.02;;;;;;;27.97;53.39;99320.38;5070976;28;20527;-76
2021/06/23 07:09:23;;;;;;;22.15;12.73;;;;;;;28.37;53.13;99376.72;5073356;28;20024;-75
2021/06/23 07:11:49;;;;;;;20.35;11.52;;;;;;;28.42;52.83;99373.91;5073001;28;20410;-75
2021/06/23 07:14:15;;;;;;;20.70;12.40;;;;;;;28.16;52.82;99329.25;5081957;28;20025;-75
2021/06/23 07:16:41;;;;;;;20.15;11.70;;;;;;;28.16;52.62;99323.81;5071559;28;20025;-75
2021/06/23 07:19:07;;;;;;;14.90;11.27;;;;;;;28.23;51.95;99326.97;5073068;28;20420;-75
2021/06/23 07:21:32;;;;;;;16.52;12.07;;;;;;;28.25;51.77;99322.09;5071616;28;20028;-74
2021/06/23 07:23:58;;;;;;;18.85;12.63;;;;;;;28.25;52.12;99315.84;5077732;28;20024;-76
2021/06/23 07:26:25;;;;;;;18.48;11.38;;;;;;;28.60;51.43;99360.53;5070928;28;20492;-74
2021/06/23 07:28:53;;;;;;;15.75;12.48;;;;;;;28.70;51.32;99366.59;5084618;28;20446;-75
2021/06/23 07:36:46;;;;;;;17.55;11.18;;;;;;;28.82;51.32;99359.84;5070915;28;20028;-76
2021/06/23 07:39:14;;;;;;;19.23;11.50;;;;;;;29.04;51.04;99379.81;5070466;28;20033;-76
2021/06/23 07:41:42;;;;;;;16.60;10.88;;;;;;;29.13;50.98;99382.63;5085877;28;20036;-75
2021/06/23 07:44:09;;;;;;;15.50;11.02;;;;;;;28.95;50.58;99348.19;5090918;28;20035;-76
2021/06/23 07:46:41;;;;;;;20.27;10.90;;;;;;;29.30;49.89;99390.13;5091067;28;20089;-77
2021/06/23 07:49:12;;;;;;;22.00;11.45;;;;;;;29.20;49.88;99377.56;5090855;28;20020;-76
2021/06/23 07:51:53;;;;;;;22.17;11.07;;;;;;;29.39;49.59;99397.28;5091216;28;20038;-76
2021/06/23 08:10:46;;;;;;;25.08;11.10;;;;;;;29.94;48.01;99418.94;5071364;28;20040;-75
2021/06/23 08:13:13;;;;;;;24.13;11.45;;;;;;;29.77;47.93;99374.44;5071271;28;20023;-75
2021/06/23 08:15:42;;;;;;;20.50;10.88;;;;;;;30.01;47.86;99405.72;5071242;28;20103;-76
2021/06/23 08:18:08;;;;;;;31.85;12.20;;;;;;;30.08;48.30;99405.28;5071212;28;20048;-76
2021/06/23 08:20:34;;;;;;;26.45;10.88;;;;;;;30.16;47.83;99407.25;5071035;28;20477;-76
2021/06/23 08:23:00;;;;;;;21.63;10.35;;;;;;;30.02;47.43;99358.31;5070840;28;20035;-76
2021/06/23 08:25:26;;;;;;;27.30;11.30;;;;;;;30.04;46.55;99355.28;5069670;28;20036;-75
2021/06/23 08:27:52;;;;;;;26.25;11.43;;;;;;;30.36;46.68;99381.41;5070735;28;20417;-76
2021/06/23 08:30:19;;;;;;;20.13;9.75;;;;;;;30.55;45.87;99405.72;5070644;28;20477;-74
2021/06/23 08:32:46;;;;;;;22.83;10.00;;;;;;;30.51;45.51;99389.22;5069530;28;20492;-75
2021/06/23 08:35:11;;;;;;;21.60;10.00;;;;;;;30.65;45.15;99398.13;5071014;28;20032;-76
2021/06/23 08:37:38;;;;;;;24.60;10.68;;;;;;;30.66;45.00;99393.47;5070720;28;20038;-77
2021/06/23 08:40:05;;;;;;;27.70;10.93;;;;;;;30.81;45.07;99398.50;5069856;28;20082;-75
2021/06/23 08:42:31;;;;;;;28.77;9.68;;;;;;;30.87;45.00;99399.97;5070619;28;20059;-76
2021/06/23 08:44:56;;;;;;;23.20;9.93;;;;;;;30.75;45.27;99363.53;5069597;28;20477;-75
2021/06/23 08:47:24;;;;;;;26.77;9.63;;;;;;;31.07;44.57;99386.88;5070432;28;20028;-77
2021/06/23 08:49:50;;;;;;;21.08;9.57;;;;;;;31.16;44.76;99402.16;5070605;28;20412;-76
2021/06/23 08:52:16;;;;;;;24.58;11.23;;;;;;;30.91;44.66;99359.25;5070168;28;20025;-75
2021/06/23 08:54:43;;;;;;;20.08;10.00;;;;;;;31.33;44.26;99403.34;5069316;28;20496;-75
2021/06/23 08:57:09;;;;;;;25.85;9.77;;;;;;;31.45;44.02;99407.03;5070215;28;20067;-75
2021/06/23 08:59:35;;;;;;;20.85;9.23;;;;;;;31.27;43.92;99359.84;5070150;28;20033;-76
2021/06/23 09:02:01;;;;;;;21.45;9.48;;;;;;;31.53;43.91;99395.34;5070371;28;20413;-75
2021/06/23 09:04:27;;;;;;;23.98;9.73;;;;;;;31.44;43.72;99355.53;5069107;28;20032;-75
2021/06/23 09:06:59;;;;;;;18.05;8.95;;;;;;;31.53;43.28;99354.41;5072161;28;20074;-75
2021/06/23 09:09:36;;;;;;;27.05;9.38;;;;;;;31.95;42.56;99376.56;5074135;28;20020;-75
2021/06/23 09:12:07;;;;;;;20.83;9.30;;;;;;;31.98;42.49;99372.41;5072758;28;20028;-75
2021/06/23 09:14:36;;;;;;;22.10;9.80;;;;;;;32.15;42.39;99384.09;5073798;28;20030;-75
2021/06/23 09:17:17;;;;;;;25.63;9.63;;;;;;;32.21;42.09;99382.78;5073688;28;20082;-75
2021/06/23 09:19:48;;;;;;;29.60;10.45;;;;;;;32.13;41.58;99356.31;5073826;28;20028;-74
2021/06/23 09:22:32;;;;;;;23.95;9.82;;;;;;;32.45;41.83;99371.34;5073530;28;20020;-74
2021/06/23 09:24:58;;;;;;;20.23;9.55;;;;;;;31.12;41.22;99154.91;5073339;28;20026;-74
2021/06/23 09:27:26;;;;;;;22.58;9.50;;;;;;;32.29;41.13;99325.75;5073807;28;20020;-75
2021/06/23 09:29:52;;;;;;;19.30;9.57;;;;;;;32.81;40.84;99373.66;5073601;28;20455;-76
2021/06/23 09:32:21;;;;;;;20.90;8.80;;;;;;;32.73;40.74;99330.72;5073722;28;20017;-75
2021/06/23 09:34:53;;;;;;;23.55;9.70;;;;;;;32.83;38.85;99308.50;5073619;28;20040;-74
2021/06/23 09:37:36;;;;;;;22.45;9.95;;;;;;;32.97;39.60;99307.44;5078016;28;20030;-75
2021/06/23 09:40:17;;;;;;;20.83;9.02;;;;;;;33.28;39.25;99362.56;5072966;28;20510;-76
2021/06/23 09:42:47;;;;;;;28.40;11.60;;;;;;;33.36;38.34;99355.47;5078852;28;20044;-73
2021/06/23 09:45:15;;;;;;;27.65;10.85;;;;;;;33.47;38.93;99349.28;5092726;28;20089;-75
2021/06/23 09:47:43;;;;;;;24.83;10.18;;;;;;;33.66;38.41;99357.00;5087723;28;20040;-75
2021/06/23 09:50:11;;;;;;;22.27;9.90;;;;;;;33.78;38.49;99361.75;5073315;28;20017;-76
2021/06/23 09:53:12;;;;;;;24.02;10.15;;;;;;;33.37;38.08;99322.28;5073461;28;20060;-77
2021/06/23 09:55:40;;;;;;;26.73;11.60;;;;;;;33.43;38.79;99339.31;5073493;28;20109;-75
2021/06/23 09:58:20;;;;;;;25.73;9.85;;;;;;;33.21;38.00;99302.09;5073189;28;20039;-75
2021/06/23 10:01:04;;;;;;;27.35;9.50;;;;;;;33.61;37.61;99348.19;5087312;28;20027;-75
2021/06/23 10:03:34;;;;;;;19.98;9.77;;;;;;;33.71;37.81;99345.84;5093213;28;20488;-74
2021/06/23 10:06:22;;;;;;;21.88;9.05;;;;;;;33.66;37.24;99301.44;5090750;28;20030;-73
2021/06/23 10:08:48;;;;;;;21.48;9.65;;;;;;;34.11;37.34;99337.91;5082635;28;20055;-75
2021/06/23 10:11:26;;;;;;;19.65;8.88;;;;;;;34.07;36.70;99293.13;5073343;28;20028;-76
2021/06/23 10:13:52;;;;;;;26.40;8.43;;;;;;;34.66;36.30;99322.13;5072995;28;20405;-75
2021/06/23 10:16:17;;;;;;;21.55;9.82;;;;;;;34.62;36.11;99269.09;5071900;28;20024;-75
2021/06/23 10:18:43;;;;;;;17.10;8.55;;;;;;;35.20;36.01;99330.91;5075026;28;20034;-76
2021/06/23 10:21:08;;;;;;;22.48;8.98;;;;;;;35.20;35.46;99291.69;5081412;28;20104;-75
2021/06/23 10:23:34;;;;;;;19.83;9.00;;;;;;;35.10;34.87;99256.50;5092750;28;20039;-83
2021/06/23 10:26:01;;;;;;;17.90;8.60;;;;;;;35.13;34.71;99248.34;5078117;28;20024;-81
2021/06/23 10:28:27;;;;;;;21.67;8.45;;;;;;;35.24;34.50;99285.16;5071661;28;20038;-82
2021/06/23 10:30:53;;;;;;;22.85;8.75;;;;;;;35.34;34.13;99297.59;5072451;28;20020;-82
2021/06/23 10:33:19;;;;;;;21.73;8.07;;;;;;;35.63;33.60;99312.94;5075810;28;20027;-80
2021/06/23 10:35:47;;;;;;;23.95;9.27;;;;;;;35.73;33.93;99308.91;5075518;28;20024;-82
2021/06/23 10:38:17;;;;;;;28.15;9.00;;;;;;;35.88;33.65;99317.22;5071663;28;20024;-82
2021/06/23 10:40:42;;;;;;;19.70;9.00;;;;;;;35.74;33.39;99283.84;5083726;28;20035;-81
2021/06/23 10:43:15;;;;;;;21.77;8.55;;;;;;;36.12;33.05;99309.97;5078154;28;20024;-84
2021/06/23 10:45:45;;;;;;;19.73;8.38;;;;;;;35.69;32.97;99245.63;5072925;28;20458;-82
2021/06/23 10:48:11;;;;;;;21.67;7.70;;;;;;;36.29;32.57;99315.94;5087979;28;20056;-83
2021/06/23 10:50:37;;;;;;;17.38;7.22;;;;;;;36.53;32.18;99319.69;5085375;28;20052;-83
2021/06/23 10:53:23;;;;;;;19.70;7.72;;;;;;;36.37;32.12;99278.41;5072040;28;20035;-82
2021/06/23 10:55:49;;;;;;;21.23;7.38;;;;;;;36.92;31.54;99323.38;5080091;28;20027;-81
2021/06/23 10:58:14;;;;;;;25.17;8.40;;;;;;;36.86;30.85;99300.84;5085980;28;20408;-83
2021/06/23 11:00:40;;;;;;;23.52;8.13;;;;;;;37.03;30.70;99327.16;5088482;28;20031;-82
2021/06/23 11:03:13;;;;;;;22.10;8.27;;;;;;;36.98;30.10;99304.63;5091221;28;20035;-81
2021/06/23 11:05:41;;;;;;;20.05;8.20;;;;;;;37.07;30.92;99318.97;5091547;28;20412;-81
2021/06/23 11:08:33;;;;;;;21.30;8.43;;;;;;;37.30;30.28;99317.16;5083632;28;20030;-80
2021/06/23 11:11:06;;;;;;;25.35;8.05;;;;;;;37.29;30.62;99323.03;5078773;28;20040;-79
2021/06/23 11:13:37;;;;;;;21.38;8.50;;;;;;;37.25;30.25;99278.91;5076207;28;20539;-81
2021/06/23 11:16:04;;;;;;;21.67;7.53;;;;;;;37.19;30.47;99248.09;5079918;28;20020;-81
2021/06/23 11:18:33;;;;;;;22.08;7.90;;;;;;;37.74;30.37;99311.38;5091958;28;20519;-78
2021/06/23 11:21:22;;;;;;;22.75;7.70;;;;;;;37.74;29.49;99281.84;5074630;28;20417;-83
2021/06/23 11:23:54;;;;;;;21.92;7.70;;;;;;;37.89;29.97;99310.47;5074210;28;20051;-76
2021/06/23 11:26:21;;;;;;;22.27;8.13;;;;;;;37.97;29.84;99308.66;5069865;28;20438;-76
2021/06/23 11:28:51;;;;;;;26.40;7.93;;;;;;;37.77;29.55;99261.03;5089056;28;20024;-76
2021/06/23 11:31:17;;;;;;;20.90;8.13;;;;;;;38.10;29.74;99297.09;5076281;28;20024;-76
2021/06/23 11:33:48;;;;;;;22.00;8.27;;;;;;;38.28;29.19;99310.41;5089186;28;20028;-76
2021/06/23 11:36:23;;;;;;;;;;;;;;;38.43;28.80;99302.00;5074528;28;20125;-77
2021/06/23 11:38:52;;;;;;;25.10;8.13;;;;;;;38.40;28.42;99319.28;5073342;28;19912;-76
2021/06/23 11:41:17;;;;;;;20.88;7.45;;;;;;;38.29;28.46;99279.69;5070619;28;20111;-76
2021/06/23 11:43:43;;;;;;;25.25;7.60;;;;;;;38.55;28.38;99312.03;5071005;28;20119;-75
2021/06/23 11:46:08;;;;;;;21.55;7.70;;;;;;;38.63;28.37;99297.19;5070758;28;20024;-78